createdAt,value
2022-12-24T00:00:14.568Z,3.20
2022-12-24T00:02:41.983Z,2.67
2022-12-24T00:05:10.851Z,5.55
2022-12-24T00:07:37.977Z,4.03
2022-12-24T00:10:06.215Z,3.90
2022-12-24T00:12:33.330Z,3.90
2022-12-24T00:15:00.466Z,2.65
2022-12-24T00:17:27.932Z,5.68
2022-12-24T00:19:55.065Z,4.18
2022-12-24T00:22:22.138Z,3.58
2022-12-24T00:24:49.528Z,6.47
2022-12-24T00:27:16.903Z,4.25
2022-12-24T00:29:43.961Z,2.00
2022-12-24T00:32:11.356Z,4.57
2022-12-24T00:34:38.546Z,6.38
2022-12-24T00:37:06.931Z,9.07
2022-12-24T00:39:34.000Z,5.82
2022-12-24T00:42:01.061Z,3.78
2022-12-24T00:44:28.065Z,6.53
2022-12-24T00:46:55.618Z,3.20
2022-12-24T00:49:23.430Z,4.93
2022-12-24T00:51:50.680Z,8.18
2022-12-24T00:54:17.666Z,5.50
2022-12-24T00:56:44.883Z,7.78
2022-12-24T00:59:11.987Z,5.05
2022-12-24T01:01:39.747Z,7.22
2022-12-24T01:04:25.753Z,6.47
2022-12-24T01:06:53.010Z,7.15
2022-12-24T01:09:19.984Z,7.60
2022-12-24T01:11:47.041Z,4.82
2022-12-24T01:14:14.097Z,4.60
2022-12-24T01:16:41.295Z,5.65
2022-12-24T01:19:08.413Z,8.43
2022-12-24T01:21:35.625Z,6.28
2022-12-24T01:24:02.815Z,5.90
2022-12-24T01:26:29.908Z,6.15
2022-12-24T01:28:57.738Z,7.43
2022-12-24T01:31:24.865Z,7.35
2022-12-24T01:33:52.032Z,7.22
2022-12-24T01:36:19.035Z,8.95
2022-12-24T01:38:46.279Z,7.90
2022-12-24T01:41:41.629Z,5.65
2022-12-24T01:44:36.936Z,5.75
2022-12-24T01:47:11.167Z,8.10
2022-12-24T01:49:41.511Z,6.80
2022-12-24T01:52:17.148Z,6.22
2022-12-24T01:54:49.698Z,11.02
2022-12-24T01:57:22.675Z,7.90
2022-12-24T01:59:55.591Z,10.18
2022-12-24T02:02:23.970Z,5.38
2022-12-24T02:04:56.970Z,5.63
2022-12-24T02:07:24.601Z,5.78
2022-12-24T02:09:57.087Z,6.68
2022-12-24T02:12:25.904Z,7.10
2022-12-24T02:14:54.289Z,4.85
2022-12-24T02:17:47.718Z,7.57
2022-12-24T02:20:32.646Z,9.98
2022-12-24T02:25:56.940Z,7.82
2022-12-24T02:28:44.056Z,8.48
2022-12-24T02:31:26.160Z,6.05
2022-12-24T02:34:12.857Z,6.43
2022-12-24T02:37:05.477Z,7.88
2022-12-24T02:39:55.746Z,5.57
2022-12-24T02:42:27.755Z,7.72
2022-12-24T02:45:10.027Z,5.05
2022-12-24T02:47:38.161Z,5.95
2022-12-24T02:50:08.124Z,4.80
2022-12-24T02:52:41.717Z,4.82
2022-12-24T02:55:19.416Z,7.53
2022-12-24T02:58:10.426Z,6.55
2022-12-24T03:00:56.255Z,4.88
2022-12-24T03:03:36.840Z,3.75
2022-12-24T03:06:28.195Z,8.52
2022-12-24T03:09:02.135Z,7.53
2022-12-24T03:11:29.558Z,6.43
2022-12-24T03:13:59.984Z,7.78
2022-12-24T03:16:28.086Z,6.25
2022-12-24T03:18:57.047Z,6.15
2022-12-24T03:21:40.235Z,8.20
2022-12-24T03:24:07.555Z,5.95
2022-12-24T03:26:34.885Z,9.93
2022-12-24T03:29:08.374Z,5.47
2022-12-24T03:31:43.564Z,4.32
2022-12-24T03:34:11.672Z,6.75
2022-12-24T03:36:38.931Z,5.35
2022-12-24T03:39:06.930Z,10.95
2022-12-24T03:41:33.984Z,5.97
2022-12-24T03:44:01.204Z,3.95
2022-12-24T03:46:28.664Z,6.60
2022-12-24T03:48:55.860Z,5.70
2022-12-24T03:51:24.733Z,4.30
2022-12-24T03:53:56.169Z,8.05
2022-12-24T03:56:23.952Z,8.82
2022-12-24T03:58:51.275Z,8.82
2022-12-24T04:01:18.772Z,7.88
2022-12-24T04:03:46.433Z,7.22
2022-12-24T04:06:17.671Z,7.07
2022-12-24T04:08:45.011Z,7.22
2022-12-24T04:11:14.441Z,6.50
2022-12-24T04:13:41.636Z,6.05
2022-12-24T04:16:11.673Z,4.65
2022-12-24T04:18:40.103Z,10.50
2022-12-24T04:21:08.894Z,5.55
2022-12-24T04:23:38.458Z,6.82
2022-12-24T04:26:07.734Z,6.93
2022-12-24T04:28:36.198Z,9.10
2022-12-24T04:31:05.949Z,8.63
2022-12-24T04:33:33.405Z,7.35
2022-12-24T04:36:02.210Z,7.35
2022-12-24T04:38:30.414Z,8.70
2022-12-24T04:41:02.051Z,8.35
2022-12-24T04:43:29.882Z,8.50
2022-12-24T04:45:57.513Z,10.63
2022-12-24T04:48:24.729Z,5.35
2022-12-24T04:50:52.381Z,4.90
2022-12-24T04:53:19.466Z,7.57
2022-12-24T04:55:47.089Z,5.20
2022-12-24T04:58:14.482Z,5.72
2022-12-24T05:00:41.778Z,5.28
2022-12-24T05:03:09.488Z,8.05
2022-12-24T05:05:36.667Z,8.35
2022-12-24T05:08:04.172Z,9.15
2022-12-24T05:10:31.377Z,6.88
2022-12-24T05:12:58.579Z,6.82
2022-12-24T05:15:26.119Z,7.70
2022-12-24T05:17:53.147Z,7.85
2022-12-24T05:20:20.671Z,8.20
2022-12-24T05:23:06.314Z,8.18
2022-12-24T05:25:56.171Z,6.55
2022-12-24T05:28:23.696Z,5.90
2022-12-24T05:30:51.184Z,5.88
2022-12-24T05:33:18.276Z,8.70
2022-12-24T05:35:45.381Z,14.27
2022-12-24T05:38:12.398Z,6.45
2022-12-24T05:40:39.506Z,6.70
2022-12-24T05:43:06.662Z,8.95
2022-12-24T05:45:33.633Z,12.18
2022-12-24T05:48:00.756Z,5.65
2022-12-24T05:50:27.797Z,10.55
2022-12-24T05:52:54.952Z,7.72
2022-12-24T05:55:22.049Z,9.40
2022-12-24T05:57:49.086Z,7.22
2022-12-24T06:00:16.454Z,7.18
2022-12-24T06:02:43.735Z,4.65
2022-12-24T06:05:10.937Z,8.77
2022-12-24T06:07:38.424Z,9.27
2022-12-24T06:10:06.579Z,7.90
2022-12-24T06:12:33.765Z,9.18
2022-12-24T06:15:00.901Z,8.63
2022-12-24T06:17:27.988Z,9.60
2022-12-24T06:19:55.275Z,8.73
2022-12-24T06:22:22.426Z,8.68
2022-12-24T06:24:49.447Z,14.38
2022-12-24T06:27:16.557Z,8.70
2022-12-24T06:29:43.717Z,6.78
2022-12-24T06:32:10.980Z,11.25
2022-12-24T06:34:38.143Z,7.95
2022-12-24T06:37:05.806Z,6.35
2022-12-24T06:39:33.029Z,9.93
2022-12-24T06:42:00.131Z,13.27
2022-12-24T06:44:27.300Z,8.88
2022-12-24T06:46:54.771Z,8.05
2022-12-24T06:49:21.889Z,13.13
2022-12-24T06:51:49.193Z,12.57
2022-12-24T06:54:16.311Z,10.20
2022-12-24T06:56:43.477Z,12.38
2022-12-24T06:59:10.551Z,9.35
2022-12-24T07:01:37.669Z,15.25
2022-12-24T07:04:05.017Z,12.82
2022-12-24T07:06:32.509Z,8.90
2022-12-24T07:08:59.600Z,13.00
2022-12-24T07:11:26.996Z,8.95
2022-12-24T07:13:54.059Z,8.40
2022-12-24T07:16:21.787Z,12.98
2022-12-24T07:18:49.224Z,8.30
2022-12-24T07:21:16.349Z,9.07
2022-12-24T07:23:43.584Z,12.30
2022-12-24T07:26:11.051Z,8.27
2022-12-24T07:28:38.072Z,10.45
2022-12-24T07:31:05.248Z,8.13
2022-12-24T07:33:32.503Z,7.88
2022-12-24T07:36:02.264Z,12.00
2022-12-24T07:38:30.250Z,11.63
2022-12-24T07:40:58.110Z,13.60
2022-12-24T07:43:26.732Z,11.15
2022-12-24T07:45:58.451Z,12.90
2022-12-24T07:48:27.141Z,16.88
2022-12-24T07:50:54.653Z,11.25
2022-12-24T07:53:21.986Z,15.15
2022-12-24T07:55:49.527Z,9.45
2022-12-24T07:58:16.661Z,9.50
2022-12-24T08:00:44.014Z,9.60
2022-12-24T08:03:20.124Z,7.95
2022-12-24T08:05:47.826Z,11.93
2022-12-24T08:08:15.315Z,12.13
2022-12-24T08:10:44.869Z,10.00
2022-12-24T08:13:12.454Z,11.23
2022-12-24T08:15:39.525Z,10.55
2022-12-24T08:18:06.605Z,12.95
2022-12-24T08:20:33.715Z,8.48
2022-12-24T08:23:00.797Z,9.45
2022-12-24T08:25:28.035Z,9.65
2022-12-24T08:27:55.087Z,14.57
2022-12-24T08:30:22.184Z,11.40
2022-12-24T08:32:49.574Z,9.27
2022-12-24T08:35:17.434Z,8.20
2022-12-24T08:37:44.510Z,12.07
2022-12-24T08:40:11.988Z,12.15
2022-12-24T08:42:39.432Z,15.25
2022-12-24T08:45:07.533Z,16.65
2022-12-24T08:47:34.923Z,12.75
2022-12-24T08:50:02.023Z,13.63
2022-12-24T08:52:29.203Z,12.25
2022-12-24T08:54:56.269Z,8.63
2022-12-24T08:57:23.276Z,13.50
2022-12-24T08:59:50.379Z,11.50
2022-12-24T09:02:17.684Z,15.90
2022-12-24T09:04:45.059Z,14.65
2022-12-24T09:07:12.304Z,9.57
2022-12-24T09:09:39.399Z,12.75
2022-12-24T09:12:07.599Z,9.15
2022-12-24T09:14:34.867Z,11.25
2022-12-24T09:17:02.039Z,10.95
2022-12-24T09:19:29.292Z,11.98
2022-12-24T09:21:56.263Z,14.23
2022-12-24T09:24:23.509Z,11.95
2022-12-24T09:26:57.357Z,11.45
2022-12-24T09:29:25.524Z,10.20
2022-12-24T09:31:52.642Z,12.52
2022-12-24T09:34:22.700Z,15.15
2022-12-24T09:36:54.408Z,11.02
2022-12-24T09:39:21.569Z,13.13
2022-12-24T09:42:03.263Z,11.38
2022-12-24T09:44:49.299Z,16.65
2022-12-24T09:47:33.448Z,11.30
2022-12-24T09:50:05.102Z,14.70
2022-12-24T09:52:41.422Z,17.00
2022-12-24T09:55:32.620Z,10.68
2022-12-24T09:58:02.321Z,12.93
2022-12-24T10:00:33.417Z,10.60
2022-12-24T10:03:01.033Z,12.55
2022-12-24T10:05:44.275Z,13.50
2022-12-24T10:08:27.351Z,12.80
2022-12-24T10:11:00.801Z,9.65
2022-12-24T10:13:45.089Z,8.52
2022-12-24T10:16:45.229Z,9.80
2022-12-24T10:19:30.697Z,11.23
2022-12-24T10:22:26.611Z,13.63
2022-12-24T10:25:18.140Z,12.15
2022-12-24T10:27:45.985Z,11.02
2022-12-24T10:30:22.765Z,10.98
2022-12-24T10:32:54.778Z,12.70
2022-12-24T10:35:40.611Z,13.38
2022-12-24T10:38:09.327Z,12.95
2022-12-24T10:40:59.160Z,9.90
2022-12-24T10:43:28.593Z,11.68
2022-12-24T10:45:59.573Z,12.13
2022-12-24T10:48:32.500Z,13.57
2022-12-24T10:51:14.885Z,12.90
2022-12-24T10:53:52.207Z,12.13
2022-12-24T10:56:21.078Z,14.77
2022-12-24T10:58:55.660Z,9.35
2022-12-24T11:01:47.138Z,15.00
2022-12-24T11:04:18.421Z,12.18
2022-12-24T11:07:01.065Z,13.05
2022-12-24T11:09:43.443Z,14.70
2022-12-24T11:12:21.651Z,14.20
2022-12-24T11:14:50.278Z,9.10
2022-12-24T11:17:23.247Z,11.20
2022-12-24T11:19:50.941Z,10.68
2022-12-24T11:22:22.911Z,10.85
2022-12-24T11:24:58.432Z,13.32
2022-12-24T11:27:39.148Z,15.57
2022-12-24T11:30:23.377Z,13.15
2022-12-24T11:33:17.624Z,13.80
2022-12-24T11:35:49.834Z,8.07
2022-12-24T11:38:27.591Z,12.00
2022-12-24T11:41:11.351Z,9.93
2022-12-24T11:43:44.799Z,15.30
2022-12-24T11:46:34.869Z,17.05
2022-12-24T11:49:26.812Z,11.93
2022-12-24T11:52:12.447Z,15.10
2022-12-24T11:55:16.707Z,13.98
2022-12-24T11:58:00.709Z,9.55
2022-12-24T12:00:28.616Z,15.50
2022-12-24T12:02:59.308Z,11.07
2022-12-24T12:05:33.539Z,12.20
2022-12-24T12:08:20.537Z,13.60
2022-12-24T12:10:49.977Z,12.93
2022-12-24T12:13:23.448Z,8.68
2022-12-24T12:16:11.203Z,10.90
2022-12-24T12:18:47.264Z,11.18
2022-12-24T12:21:19.420Z,8.88
2022-12-24T12:23:52.283Z,13.15
2022-12-24T12:26:28.468Z,11.23
2022-12-24T12:29:18.716Z,11.00
2022-12-24T12:31:49.792Z,12.75
2022-12-24T12:34:40.753Z,9.52
2022-12-24T12:37:31.088Z,12.57
2022-12-24T12:39:58.199Z,11.75
2022-12-24T12:42:30.838Z,12.77
2022-12-24T12:45:08.128Z,12.80
2022-12-24T12:48:03.470Z,8.10
2022-12-24T12:50:49.650Z,11.57
2022-12-24T12:53:42.057Z,9.35
2022-12-24T12:56:30.568Z,9.60
2022-12-24T12:59:03.992Z,13.73
2022-12-24T13:01:47.130Z,9.50
2022-12-24T13:04:47.619Z,12.82
2022-12-24T13:07:38.000Z,15.27
2022-12-24T13:10:15.261Z,14.55
2022-12-24T13:13:01.115Z,8.40
2022-12-24T13:16:05.324Z,11.98
2022-12-24T13:18:51.474Z,11.55
2022-12-24T13:21:22.887Z,7.53
2022-12-24T13:23:50.785Z,12.07
2022-12-24T13:26:19.612Z,10.45
2022-12-24T13:28:46.650Z,10.57
2022-12-24T13:31:20.123Z,12.43
2022-12-24T13:33:50.124Z,11.10
2022-12-24T13:36:19.504Z,12.80
2022-12-24T13:38:48.284Z,12.73
2022-12-24T13:41:38.633Z,11.00
2022-12-24T13:44:07.588Z,15.00
2022-12-24T13:46:47.998Z,14.48
2022-12-24T13:49:26.002Z,9.20
2022-12-24T13:52:11.422Z,8.90
2022-12-24T13:54:55.529Z,10.63
2022-12-24T13:57:45.231Z,10.80
2022-12-24T14:00:21.309Z,12.65
2022-12-24T14:02:57.568Z,9.30
2022-12-24T14:05:43.235Z,8.05
2022-12-24T14:08:28.003Z,11.73
2022-12-24T14:11:03.803Z,12.65
2022-12-24T14:13:39.981Z,9.63
2022-12-24T14:16:21.691Z,12.82
2022-12-24T14:19:10.160Z,11.60
2022-12-24T14:21:44.066Z,8.63
2022-12-24T14:24:36.054Z,11.23
2022-12-24T14:27:39.939Z,9.63
2022-12-24T14:30:20.322Z,11.88
2022-12-24T14:32:48.915Z,11.85
2022-12-24T14:35:21.841Z,9.32
2022-12-24T14:38:02.000Z,9.45
2022-12-24T14:40:41.892Z,14.90
2022-12-24T14:43:46.910Z,10.43
2022-12-24T14:47:03.059Z,10.02
2022-12-24T14:49:49.019Z,13.43
2022-12-24T14:53:03.409Z,9.73
2022-12-24T14:55:31.323Z,11.38
2022-12-24T14:58:25.069Z,8.05
2022-12-24T15:00:54.602Z,6.57
2022-12-24T15:03:25.055Z,9.63
2022-12-24T15:05:59.116Z,9.55
2022-12-24T15:08:33.535Z,10.15
2022-12-24T15:11:03.765Z,7.22
2022-12-24T15:13:45.318Z,8.52
2022-12-24T15:16:18.655Z,8.77
2022-12-24T15:18:51.941Z,10.50
2022-12-24T15:21:25.434Z,15.15
2022-12-24T15:23:53.170Z,27.58
2022-12-24T15:26:29.565Z,30.67
2022-12-24T15:29:03.372Z,18.40
2022-12-24T15:31:31.556Z,9.70
2022-12-24T15:34:01.802Z,12.65
2022-12-24T15:36:35.304Z,9.00
2022-12-24T15:39:06.482Z,6.15
2022-12-24T15:42:00.195Z,14.77
2022-12-24T15:44:35.477Z,9.32
2022-12-24T15:47:04.970Z,10.45
2022-12-24T15:49:33.298Z,9.63
2022-12-24T15:52:05.757Z,10.88
2022-12-24T15:54:32.911Z,7.97
2022-12-24T15:56:59.938Z,9.90
2022-12-24T15:59:38.497Z,4.93
2022-12-24T16:02:33.364Z,11.45
2022-12-24T16:05:19.562Z,8.00
2022-12-24T16:08:07.454Z,8.60
2022-12-24T16:10:40.599Z,8.07
2022-12-24T16:13:23.928Z,7.53
2022-12-24T16:15:59.000Z,10.57
2022-12-24T16:18:31.600Z,17.52
2022-12-24T16:20:58.836Z,10.25
2022-12-24T16:23:32.803Z,8.00
2022-12-24T16:25:59.868Z,7.93
2022-12-24T16:28:27.026Z,8.43
2022-12-24T16:30:56.400Z,4.75
2022-12-24T16:33:24.155Z,6.53
2022-12-24T16:35:51.351Z,9.88
2022-12-24T16:38:18.463Z,6.18
2022-12-24T16:40:45.836Z,7.40
2022-12-24T16:43:31.540Z,11.45
2022-12-24T16:46:08.207Z,9.68
2022-12-24T16:48:37.067Z,8.88
2022-12-24T16:51:04.155Z,10.60
2022-12-24T16:53:31.205Z,8.30
2022-12-24T16:55:58.524Z,8.93
2022-12-24T16:58:25.718Z,11.65
2022-12-24T17:00:53.636Z,10.65
2022-12-24T17:03:21.085Z,12.57
2022-12-24T17:05:48.476Z,12.05
2022-12-24T17:08:15.771Z,27.33
2022-12-24T17:10:51.050Z,29.83
2022-12-24T17:13:18.068Z,36.92
2022-12-24T17:15:45.327Z,26.27
2022-12-24T17:18:12.597Z,17.17
2022-12-24T17:20:40.697Z,24.98
2022-12-24T17:23:07.832Z,29.30
2022-12-24T17:25:36.319Z,27.35
2022-12-24T17:28:03.470Z,26.13
2022-12-24T17:30:30.530Z,53.75
2022-12-24T17:32:57.641Z,50.33
2022-12-24T17:35:24.618Z,50.50
2022-12-24T17:37:51.750Z,25.00
2022-12-24T17:40:18.786Z,22.17
2022-12-24T17:42:45.752Z,25.15
2022-12-24T17:45:12.773Z,26.10
2022-12-24T17:47:39.736Z,21.67
2022-12-24T17:50:07.359Z,16.83
2022-12-24T17:52:34.823Z,13.80
2022-12-24T17:55:01.885Z,12.32
2022-12-24T17:57:28.938Z,15.82
2022-12-24T17:59:57.426Z,17.92
2022-12-24T18:02:24.674Z,15.13
2022-12-24T18:04:52.244Z,10.30
2022-12-24T18:07:19.339Z,16.70
2022-12-24T18:09:46.419Z,16.98
2022-12-24T18:12:13.865Z,21.52
2022-12-24T18:14:40.932Z,36.35
2022-12-24T18:17:08.525Z,28.35
2022-12-24T18:19:35.558Z,17.48
2022-12-24T18:22:02.748Z,15.57
2022-12-24T18:24:29.705Z,17.42
2022-12-24T18:26:57.212Z,13.68
2022-12-24T18:29:24.497Z,10.30
2022-12-24T18:31:51.949Z,11.50
2022-12-24T18:34:19.301Z,11.40
2022-12-24T18:36:52.883Z,9.75
2022-12-24T18:39:22.021Z,9.88
2022-12-24T18:41:49.631Z,7.40
2022-12-24T18:44:20.918Z,9.32
2022-12-24T18:46:51.634Z,11.52
2022-12-24T18:49:18.991Z,11.05
2022-12-24T18:51:46.538Z,14.43
2022-12-24T18:54:13.569Z,11.13
2022-12-24T18:56:40.585Z,10.93
2022-12-24T18:59:07.935Z,11.27
2022-12-24T19:01:35.622Z,8.43
2022-12-24T19:04:03.313Z,9.18
2022-12-24T19:06:30.396Z,10.57
2022-12-24T19:08:59.685Z,8.02
2022-12-24T19:11:29.249Z,7.75
2022-12-24T19:13:58.237Z,9.13
2022-12-24T19:16:26.489Z,9.77
2022-12-24T19:18:54.896Z,11.07
2022-12-24T19:21:22.166Z,9.27
2022-12-24T19:23:49.269Z,19.52
2022-12-24T19:26:18.551Z,23.27
2022-12-24T19:28:46.171Z,12.73
2022-12-24T19:31:21.739Z,11.30
2022-12-24T19:33:51.571Z,12.90
2022-12-24T19:36:21.469Z,10.15
2022-12-24T19:38:48.642Z,9.95
2022-12-24T19:41:18.596Z,10.43
2022-12-24T19:43:48.071Z,9.52
2022-12-24T19:46:18.939Z,6.70
2022-12-24T19:48:50.489Z,7.30
2022-12-24T19:51:18.672Z,8.23
2022-12-24T19:53:46.451Z,6.35
2022-12-24T19:56:20.940Z,7.65
2022-12-24T19:58:48.992Z,7.43
2022-12-24T20:01:23.694Z,5.55
2022-12-24T20:03:52.604Z,15.32
2022-12-24T20:06:24.397Z,4.90
2022-12-24T20:08:51.605Z,6.60
2022-12-24T20:11:20.761Z,7.63
2022-12-24T20:13:48.364Z,6.53
2022-12-24T20:16:20.569Z,8.38
2022-12-24T20:18:52.370Z,7.78
2022-12-24T20:21:19.330Z,9.05
2022-12-24T20:23:46.704Z,8.15
2022-12-24T20:26:15.653Z,6.63
2022-12-24T20:28:43.295Z,8.90
2022-12-24T20:31:15.874Z,6.50
2022-12-24T20:33:44.521Z,7.15
2022-12-24T20:36:13.146Z,7.57
2022-12-24T20:38:40.413Z,7.28
2022-12-24T20:41:09.804Z,7.57
2022-12-24T20:43:47.094Z,6.13
2022-12-24T20:46:17.141Z,7.57
2022-12-24T20:48:44.593Z,8.70
2022-12-24T20:51:22.841Z,16.23
2022-12-24T20:53:52.648Z,11.45
2022-12-24T20:56:19.997Z,9.70
2022-12-24T20:58:46.981Z,7.55
2022-12-24T21:01:24.596Z,13.43
2022-12-24T21:03:53.775Z,9.07
2022-12-24T21:06:21.699Z,10.18
2022-12-24T21:08:50.338Z,10.90
2022-12-24T21:11:35.751Z,6.60
2022-12-24T21:14:03.095Z,7.65
2022-12-24T21:16:31.983Z,5.22
2022-12-24T21:18:59.451Z,4.13
2022-12-24T21:21:26.714Z,8.82
2022-12-24T21:23:54.482Z,6.28
2022-12-24T21:26:21.486Z,6.18
2022-12-24T21:28:49.183Z,5.75
2022-12-24T21:31:17.078Z,6.10
2022-12-24T21:33:44.201Z,6.13
2022-12-24T21:36:13.162Z,7.55
2022-12-24T21:38:41.125Z,9.32
2022-12-24T21:41:14.079Z,7.47
2022-12-24T21:43:42.037Z,9.20
2022-12-24T21:46:11.433Z,10.35
2022-12-24T21:48:57.491Z,13.23
2022-12-24T21:51:26.430Z,8.43
2022-12-24T21:54:12.314Z,7.35
2022-12-24T21:56:57.821Z,6.30
2022-12-24T21:59:27.098Z,8.13
2022-12-24T22:01:55.820Z,7.15
2022-12-24T22:04:23.410Z,9.75
2022-12-24T22:07:09.192Z,10.75
2022-12-24T22:09:56.957Z,7.78
2022-12-24T22:12:24.215Z,11.48
2022-12-24T22:14:51.364Z,10.23
2022-12-24T22:17:24.664Z,8.20
2022-12-24T22:19:52.698Z,10.38
2022-12-24T22:22:19.673Z,7.57
2022-12-24T22:24:46.747Z,9.38
2022-12-24T22:27:14.051Z,7.43
2022-12-24T22:29:41.148Z,6.15
2022-12-24T22:32:08.133Z,8.75
2022-12-24T22:34:36.193Z,10.73
2022-12-24T22:37:03.433Z,12.13
2022-12-24T22:39:30.590Z,12.98
2022-12-24T22:42:00.592Z,12.02
2022-12-24T22:44:27.693Z,10.25
2022-12-24T22:46:55.302Z,8.52
2022-12-24T22:49:22.532Z,8.77
2022-12-24T22:51:49.572Z,11.23
2022-12-24T22:54:16.766Z,8.25
2022-12-24T22:56:43.971Z,10.52
2022-12-24T22:59:13.951Z,7.57
2022-12-24T23:01:44.590Z,8.35
2022-12-24T23:04:13.925Z,9.32
2022-12-24T23:06:41.697Z,9.38
2022-12-24T23:09:10.893Z,9.52
2022-12-24T23:11:39.710Z,6.55
2022-12-24T23:14:25.359Z,5.97
2022-12-24T23:16:52.607Z,8.50
2022-12-24T23:19:19.951Z,7.88
2022-12-24T23:21:47.082Z,8.25
2022-12-24T23:24:14.565Z,7.57
2022-12-24T23:26:42.403Z,6.00
2022-12-24T23:29:09.533Z,6.80
2022-12-24T23:31:37.804Z,6.13
2022-12-24T23:34:05.222Z,5.88
2022-12-24T23:36:32.418Z,4.88
2022-12-24T23:38:59.717Z,4.85
2022-12-24T23:41:26.782Z,5.18
2022-12-24T23:43:53.993Z,4.43
2022-12-24T23:46:21.864Z,5.05
2022-12-24T23:48:52.830Z,5.03
2022-12-24T23:51:23.682Z,3.20
2022-12-24T23:53:52.393Z,5.13
2022-12-24T23:56:20.459Z,3.70
2022-12-24T23:58:48.114Z,2.75
